sensor_id;sensor_type;location;lat;lon;timestamp;temperature;humidity
15072;DHT22;7635;56.696;13.002;2023-03-29T00:01:17;1.30;99.90
15072;DHT22;7635;56.696;13.002;2023-03-29T00:03:46;1.40;99.90
15072;DHT22;7635;56.696;13.002;2023-03-29T00:06:14;1.40;99.90
15072;DHT22;7635;56.696;13.002;2023-03-29T00:08:46;1.40;99.90
15072;DHT22;7635;56.696;13.002;2023-03-29T00:11:15;1.40;99.90
15072;DHT22;7635;56.696;13.002;2023-03-29T00:13:42;1.50;99.90
15072;DHT22;7635;56.696;13.002;2023-03-29T00:16:09;1.50;99.90
15072;DHT22;7635;56.696;13.002;2023-03-29T00:18:38;1.50;99.90
15072;DHT22;7635;56.696;13.002;2023-03-29T00:21:05;1.50;99.90
15072;DHT22;7635;56.696;13.002;2023-03-29T00:23:32;1.50;99.90
15072;DHT22;7635;56.696;13.002;2023-03-29T00:25:58;1.50;99.90
15072;DHT22;7635;56.696;13.002;2023-03-29T00:28:25;1.50;99.90
15072;DHT22;7635;56.696;13.002;2023-03-29T00:30:52;1.50;99.90
15072;DHT22;7635;56.696;13.002;2023-03-29T00:33:19;1.50;99.90
15072;DHT22;7635;56.696;13.002;2023-03-29T00:35:48;1.50;99.90
15072;DHT22;7635;56.696;13.002;2023-03-29T00:38:17;1.50;99.90
15072;DHT22;7635;56.696;13.002;2023-03-29T00:40:45;1.50;99.90
15072;DHT22;7635;56.696;13.002;2023-03-29T00:43:13;1.50;99.90
15072;DHT22;7635;56.696;13.002;2023-03-29T00:45:40;1.50;99.90
15072;DHT22;7635;56.696;13.002;2023-03-29T00:48:09;1.40;99.90
15072;DHT22;7635;56.696;13.002;2023-03-29T00:50:40;1.40;99.90
15072;DHT22;7635;56.696;13.002;2023-03-29T00:53:12;1.40;99.90
15072;DHT22;7635;56.696;13.002;2023-03-29T00:55:43;1.40;99.90
15072;DHT22;7635;56.696;13.002;2023-03-29T00:58:13;1.40;99.90
15072;DHT22;7635;56.696;13.002;2023-03-29T01:00:45;1.40;99.90
15072;DHT22;7635;56.696;13.002;2023-03-29T01:03:15;1.40;99.90
15072;DHT22;7635;56.696;13.002;2023-03-29T01:05:52;1.40;99.90
15072;DHT22;7635;56.696;13.002;2023-03-29T01:08:24;1.40;99.90
15072;DHT22;7635;56.696;13.002;2023-03-29T01:10:55;1.40;99.90
15072;DHT22;7635;56.696;13.002;2023-03-29T01:13:27;1.30;99.90
15072;DHT22;7635;56.696;13.002;2023-03-29T01:15:57;1.40;99.90
15072;DHT22;7635;56.696;13.002;2023-03-29T01:18:24;1.40;99.90
15072;DHT22;7635;56.696;13.002;2023-03-29T01:21:07;1.40;99.90
15072;DHT22;7635;56.696;13.002;2023-03-29T01:26:42;1.50;99.90
15072;DHT22;7635;56.696;13.002;2023-03-29T01:29:16;1.50;99.90
15072;DHT22;7635;56.696;13.002;2023-03-29T01:31:50;1.50;99.90
15072;DHT22;7635;56.696;13.002;2023-03-29T01:34:21;1.60;99.90
15072;DHT22;7635;56.696;13.002;2023-03-29T01:36:55;1.60;99.90
15072;DHT22;7635;56.696;13.002;2023-03-29T01:39:24;1.60;99.90
15072;DHT22;7635;56.696;13.002;2023-03-29T01:41:59;1.60;99.90
15072;DHT22;7635;56.696;13.002;2023-03-29T01:44:34;1.60;99.90
15072;DHT22;7635;56.696;13.002;2023-03-29T01:47:07;1.60;99.90
15072;DHT22;7635;56.696;13.002;2023-03-29T01:49:39;1.70;99.90
15072;DHT22;7635;56.696;13.002;2023-03-29T01:52:13;1.70;99.90
15072;DHT22;7635;56.696;13.002;2023-03-29T01:54:46;1.70;99.90
15072;DHT22;7635;56.696;13.002;2023-03-29T01:57:15;1.70;99.90
15072;DHT22;7635;56.696;13.002;2023-03-29T01:59:45;1.70;99.90
15072;DHT22;7635;56.696;13.002;2023-03-29T02:02:15;1.70;99.90
15072;DHT22;7635;56.696;13.002;2023-03-29T02:04:47;1.80;99.90
15072;DHT22;7635;56.696;13.002;2023-03-29T02:07:17;1.70;99.90
15072;DHT22;7635;56.696;13.002;2023-03-29T02:09:45;1.80;99.90
15072;DHT22;7635;56.696;13.002;2023-03-29T02:12:14;1.80;99.90
15072;DHT22;7635;56.696;13.002;2023-03-29T02:14:42;1.80;99.90
15072;DHT22;7635;56.696;13.002;2023-03-29T02:17:15;1.80;99.90
15072;DHT22;7635;56.696;13.002;2023-03-29T02:19:43;1.80;99.90
15072;DHT22;7635;56.696;13.002;2023-03-29T02:22:16;1.90;99.90
15072;DHT22;7635;56.696;13.002;2023-03-29T02:24:47;1.90;99.90
15072;DHT22;7635;56.696;13.002;2023-03-29T02:27:15;1.90;99.90
15072;DHT22;7635;56.696;13.002;2023-03-29T02:29:42;1.90;99.90
15072;DHT22;7635;56.696;13.002;2023-03-29T02:32:16;1.90;99.90
15072;DHT22;7635;56.696;13.002;2023-03-29T02:34:48;1.90;99.90
15072;DHT22;7635;56.696;13.002;2023-03-29T02:37:18;1.90;99.90
15072;DHT22;7635;56.696;13.002;2023-03-29T02:39:47;1.90;99.90
15072;DHT22;7635;56.696;13.002;2023-03-29T02:42:16;2.00;99.90
15072;DHT22;7635;56.696;13.002;2023-03-29T02:44:46;1.90;99.90
15072;DHT22;7635;56.696;13.002;2023-03-29T02:47:19;1.90;99.90
15072;DHT22;7635;56.696;13.002;2023-03-29T02:49:47;1.90;99.90
15072;DHT22;7635;56.696;13.002;2023-03-29T02:52:16;1.90;99.90
15072;DHT22;7635;56.696;13.002;2023-03-29T02:54:47;1.90;99.90
15072;DHT22;7635;56.696;13.002;2023-03-29T02:57:16;1.80;99.90
15072;DHT22;7635;56.696;13.002;2023-03-29T02:59:46;1.80;99.90
15072;DHT22;7635;56.696;13.002;2023-03-29T03:02:13;1.80;99.90
15072;DHT22;7635;56.696;13.002;2023-03-29T03:04:43;1.80;99.90
15072;DHT22;7635;56.696;13.002;2023-03-29T03:07:10;1.80;99.90
15072;DHT22;7635;56.696;13.002;2023-03-29T03:09:37;1.80;99.90
15072;DHT22;7635;56.696;13.002;2023-03-29T03:12:04;1.80;99.90
15072;DHT22;7635;56.696;13.002;2023-03-29T03:14:32;1.80;99.90
15072;DHT22;7635;56.696;13.002;2023-03-29T03:16:58;1.90;99.90
15072;DHT22;7635;56.696;13.002;2023-03-29T03:19:25;1.90;99.90
15072;DHT22;7635;56.696;13.002;2023-03-29T03:21:53;1.90;99.90
15072;DHT22;7635;56.696;13.002;2023-03-29T03:24:20;1.90;99.90
15072;DHT22;7635;56.696;13.002;2023-03-29T03:26:47;1.90;99.90
15072;DHT22;7635;56.696;13.002;2023-03-29T03:29:14;1.80;99.90
15072;DHT22;7635;56.696;13.002;2023-03-29T03:31:41;1.80;99.90
15072;DHT22;7635;56.696;13.002;2023-03-29T03:34:09;1.80;99.90
15072;DHT22;7635;56.696;13.002;2023-03-29T03:36:36;1.70;99.90
15072;DHT22;7635;56.696;13.002;2023-03-29T03:39:04;1.70;99.90
15072;DHT22;7635;56.696;13.002;2023-03-29T03:41:32;1.70;99.90
15072;DHT22;7635;56.696;13.002;2023-03-29T03:43:58;1.80;99.90
15072;DHT22;7635;56.696;13.002;2023-03-29T03:46:25;1.80;99.90
15072;DHT22;7635;56.696;13.002;2023-03-29T03:48:52;1.80;99.90
15072;DHT22;7635;56.696;13.002;2023-03-29T03:51:18;1.90;99.90
15072;DHT22;7635;56.696;13.002;2023-03-29T03:53:46;1.90;99.90
15072;DHT22;7635;56.696;13.002;2023-03-29T03:56:14;1.90;99.90
15072;DHT22;7635;56.696;13.002;2023-03-29T03:58:41;1.90;99.90
15072;DHT22;7635;56.696;13.002;2023-03-29T04:01:07;1.90;99.90
15072;DHT22;7635;56.696;13.002;2023-03-29T04:03:34;2.00;99.90
15072;DHT22;7635;56.696;13.002;2023-03-29T04:06:02;2.00;99.90
15072;DHT22;7635;56.696;13.002;2023-03-29T04:08:29;2.00;99.90
15072;DHT22;7635;56.696;13.002;2023-03-29T04:10:57;2.10;99.90
15072;DHT22;7635;56.696;13.002;2023-03-29T04:13:26;2.00;99.90
15072;DHT22;7635;56.696;13.002;2023-03-29T04:15:53;2.10;99.90
15072;DHT22;7635;56.696;13.002;2023-03-29T04:18:21;2.10;99.90
15072;DHT22;7635;56.696;13.002;2023-03-29T04:20:48;2.10;99.90
15072;DHT22;7635;56.696;13.002;2023-03-29T04:23:15;2.10;99.90
15072;DHT22;7635;56.696;13.002;2023-03-29T04:25:42;2.10;99.90
15072;DHT22;7635;56.696;13.002;2023-03-29T04:28:10;2.20;99.90
15072;DHT22;7635;56.696;13.002;2023-03-29T04:30:39;2.20;99.90
15072;DHT22;7635;56.696;13.002;2023-03-29T04:33:05;2.20;99.90
15072;DHT22;7635;56.696;13.002;2023-03-29T04:35:32;2.20;99.90
15072;DHT22;7635;56.696;13.002;2023-03-29T04:37:59;2.20;99.90
15072;DHT22;7635;56.696;13.002;2023-03-29T04:40:26;2.20;99.90
15072;DHT22;7635;56.696;13.002;2023-03-29T04:42:53;2.20;99.90
15072;DHT22;7635;56.696;13.002;2023-03-29T04:45:20;2.20;99.90
15072;DHT22;7635;56.696;13.002;2023-03-29T04:47:48;2.30;99.90
15072;DHT22;7635;56.696;13.002;2023-03-29T04:50:15;2.30;99.90
15072;DHT22;7635;56.696;13.002;2023-03-29T04:52:41;2.30;99.90
15072;DHT22;7635;56.696;13.002;2023-03-29T04:55:09;2.30;99.90
15072;DHT22;7635;56.696;13.002;2023-03-29T04:57:36;2.30;99.90
15072;DHT22;7635;56.696;13.002;2023-03-29T05:00:04;2.30;99.90
15072;DHT22;7635;56.696;13.002;2023-03-29T05:02:39;2.30;99.90
15072;DHT22;7635;56.696;13.002;2023-03-29T05:05:08;2.40;99.90
15072;DHT22;7635;56.696;13.002;2023-03-29T05:07:36;2.40;99.90
15072;DHT22;7635;56.696;13.002;2023-03-29T05:10:04;2.40;99.90
15072;DHT22;7635;56.696;13.002;2023-03-29T05:12:31;2.40;99.90
15072;DHT22;7635;56.696;13.002;2023-03-29T05:14:58;2.40;99.90
15072;DHT22;7635;56.696;13.002;2023-03-29T05:17:24;2.50;99.90
15072;DHT22;7635;56.696;13.002;2023-03-29T05:19:51;2.50;99.90
15072;DHT22;7635;56.696;13.002;2023-03-29T05:22:20;2.50;99.90
15072;DHT22;7635;56.696;13.002;2023-03-29T05:24:48;2.50;99.90
15072;DHT22;7635;56.696;13.002;2023-03-29T05:27:16;2.50;99.90
15072;DHT22;7635;56.696;13.002;2023-03-29T05:29:43;2.50;99.90
15072;DHT22;7635;56.696;13.002;2023-03-29T05:32:10;2.50;99.90
15072;DHT22;7635;56.696;13.002;2023-03-29T05:34:37;2.50;99.90
15072;DHT22;7635;56.696;13.002;2023-03-29T05:37:04;2.50;99.90
15072;DHT22;7635;56.696;13.002;2023-03-29T05:39:32;2.60;99.90
15072;DHT22;7635;56.696;13.002;2023-03-29T05:41:59;2.60;99.90
15072;DHT22;7635;56.696;13.002;2023-03-29T05:44:26;2.60;99.90
15072;DHT22;7635;56.696;13.002;2023-03-29T05:46:52;2.60;99.90
15072;DHT22;7635;56.696;13.002;2023-03-29T05:49:19;2.60;99.90
15072;DHT22;7635;56.696;13.002;2023-03-29T05:51:46;2.60;99.90
15072;DHT22;7635;56.696;13.002;2023-03-29T05:54:13;2.60;99.90
15072;DHT22;7635;56.696;13.002;2023-03-29T05:56:42;2.60;99.90
15072;DHT22;7635;56.696;13.002;2023-03-29T05:59:08;2.70;99.90
15072;DHT22;7635;56.696;13.002;2023-03-29T06:01:35;2.70;99.90
15072;DHT22;7635;56.696;13.002;2023-03-29T06:04:04;2.70;99.90
15072;DHT22;7635;56.696;13.002;2023-03-29T06:06:31;2.70;99.90
15072;DHT22;7635;56.696;13.002;2023-03-29T06:08:58;2.70;99.90
15072;DHT22;7635;56.696;13.002;2023-03-29T06:11:25;2.70;99.90
15072;DHT22;7635;56.696;13.002;2023-03-29T06:13:53;2.70;99.90
15072;DHT22;7635;56.696;13.002;2023-03-29T06:16:20;2.70;99.90
15072;DHT22;7635;56.696;13.002;2023-03-29T06:18:47;2.70;99.90
15072;DHT22;7635;56.696;13.002;2023-03-29T06:21:14;2.70;99.90
15072;DHT22;7635;56.696;13.002;2023-03-29T06:23:42;2.80;99.90
15072;DHT22;7635;56.696;13.002;2023-03-29T06:26:08;2.80;99.90
15072;DHT22;7635;56.696;13.002;2023-03-29T06:28:37;2.80;99.90
15072;DHT22;7635;56.696;13.002;2023-03-29T06:31:05;2.80;99.90
15072;DHT22;7635;56.696;13.002;2023-03-29T06:33:34;2.80;99.90
15072;DHT22;7635;56.696;13.002;2023-03-29T06:36:03;2.80;99.90
15072;DHT22;7635;56.696;13.002;2023-03-29T06:38:29;2.80;99.90
15072;DHT22;7635;56.696;13.002;2023-03-29T06:41:00;2.90;99.90
15072;DHT22;7635;56.696;13.002;2023-03-29T06:43:27;2.90;99.90
15072;DHT22;7635;56.696;13.002;2023-03-29T06:45:53;2.90;99.90
15072;DHT22;7635;56.696;13.002;2023-03-29T06:48:21;2.90;99.90
15072;DHT22;7635;56.696;13.002;2023-03-29T06:50:48;2.90;99.90
15072;DHT22;7635;56.696;13.002;2023-03-29T06:53:15;2.90;99.90
15072;DHT22;7635;56.696;13.002;2023-03-29T06:55:42;3.00;99.90
15072;DHT22;7635;56.696;13.002;2023-03-29T06:58:09;3.00;99.90
15072;DHT22;7635;56.696;13.002;2023-03-29T07:00:36;3.00;99.90
15072;DHT22;7635;56.696;13.002;2023-03-29T07:03:05;3.10;99.90
15072;DHT22;7635;56.696;13.002;2023-03-29T07:05:33;3.10;99.90
15072;DHT22;7635;56.696;13.002;2023-03-29T07:08:05;3.10;99.90
15072;DHT22;7635;56.696;13.002;2023-03-29T07:10:40;3.10;99.90
15072;DHT22;7635;56.696;13.002;2023-03-29T07:13:09;3.20;99.90
15072;DHT22;7635;56.696;13.002;2023-03-29T07:15:37;3.20;99.90
15072;DHT22;7635;56.696;13.002;2023-03-29T07:18:04;3.20;99.90
15072;DHT22;7635;56.696;13.002;2023-03-29T07:20:31;3.20;99.90
15072;DHT22;7635;56.696;13.002;2023-03-29T07:23:00;3.20;99.90
15072;DHT22;7635;56.696;13.002;2023-03-29T07:25:27;3.20;99.90
15072;DHT22;7635;56.696;13.002;2023-03-29T07:27:54;3.20;99.90
15072;DHT22;7635;56.696;13.002;2023-03-29T07:30:22;3.30;99.90
15072;DHT22;7635;56.696;13.002;2023-03-29T07:32:50;3.30;99.90
15072;DHT22;7635;56.696;13.002;2023-03-29T07:35:18;3.30;99.90
15072;DHT22;7635;56.696;13.002;2023-03-29T07:37:45;3.30;99.90
15072;DHT22;7635;56.696;13.002;2023-03-29T07:40:16;3.30;99.90
15072;DHT22;7635;56.696;13.002;2023-03-29T07:42:48;3.30;99.90
15072;DHT22;7635;56.696;13.002;2023-03-29T07:45:15;3.40;99.90
15072;DHT22;7635;56.696;13.002;2023-03-29T07:47:42;3.40;99.90
15072;DHT22;7635;56.696;13.002;2023-03-29T07:50:09;3.40;99.90
15072;DHT22;7635;56.696;13.002;2023-03-29T07:52:37;3.40;99.90
15072;DHT22;7635;56.696;13.002;2023-03-29T07:55:05;3.50;99.90
15072;DHT22;7635;56.696;13.002;2023-03-29T07:57:33;3.50;99.90
15072;DHT22;7635;56.696;13.002;2023-03-29T08:00:00;3.50;99.90
15072;DHT22;7635;56.696;13.002;2023-03-29T08:02:35;3.50;99.90
15072;DHT22;7635;56.696;13.002;2023-03-29T08:05:02;3.50;99.90
15072;DHT22;7635;56.696;13.002;2023-03-29T08:07:29;3.50;99.90
15072;DHT22;7635;56.696;13.002;2023-03-29T08:09:55;3.50;99.90
15072;DHT22;7635;56.696;13.002;2023-03-29T08:12:22;3.50;99.90
15072;DHT22;7635;56.696;13.002;2023-03-29T08:14:50;3.50;99.90
15072;DHT22;7635;56.696;13.002;2023-03-29T08:17:17;3.50;99.90
15072;DHT22;7635;56.696;13.002;2023-03-29T08:19:43;3.50;99.90
15072;DHT22;7635;56.696;13.002;2023-03-29T08:22:10;3.50;99.90
15072;DHT22;7635;56.696;13.002;2023-03-29T08:24:37;3.50;99.90
15072;DHT22;7635;56.696;13.002;2023-03-29T08:27:04;3.50;99.90
15072;DHT22;7635;56.696;13.002;2023-03-29T08:29:30;3.50;99.90
15072;DHT22;7635;56.696;13.002;2023-03-29T08:31:59;3.50;99.90
15072;DHT22;7635;56.696;13.002;2023-03-29T08:34:25;3.50;99.90
15072;DHT22;7635;56.696;13.002;2023-03-29T08:36:53;3.50;99.90
15072;DHT22;7635;56.696;13.002;2023-03-29T08:39:20;3.50;99.90
15072;DHT22;7635;56.696;13.002;2023-03-29T08:41:55;3.50;99.90
15072;DHT22;7635;56.696;13.002;2023-03-29T08:44:45;3.50;99.90
15072;DHT22;7635;56.696;13.002;2023-03-29T08:47:21;3.40;99.90
15072;DHT22;7635;56.696;13.002;2023-03-29T08:49:52;3.40;99.90
15072;DHT22;7635;56.696;13.002;2023-03-29T08:52:26;3.40;99.90
15072;DHT22;7635;56.696;13.002;2023-03-29T08:54:57;3.40;99.90
15072;DHT22;7635;56.696;13.002;2023-03-29T08:57:29;3.40;99.90
15072;DHT22;7635;56.696;13.002;2023-03-29T08:59:59;3.40;99.90
15072;DHT22;7635;56.696;13.002;2023-03-29T09:02:32;3.40;99.90
15072;DHT22;7635;56.696;13.002;2023-03-29T09:05:06;3.40;99.90
15072;DHT22;7635;56.696;13.002;2023-03-29T09:07:34;3.50;99.90
15072;DHT22;7635;56.696;13.002;2023-03-29T09:10:01;3.40;99.90
15072;DHT22;7635;56.696;13.002;2023-03-29T09:12:39;3.40;99.90
15072;DHT22;7635;56.696;13.002;2023-03-29T09:15:12;3.40;99.90
15072;DHT22;7635;56.696;13.002;2023-03-29T09:17:52;3.40;99.90
15072;DHT22;7635;56.696;13.002;2023-03-29T09:20:29;3.40;99.90
15072;DHT22;7635;56.696;13.002;2023-03-29T09:23:09;3.40;99.90
15072;DHT22;7635;56.696;13.002;2023-03-29T09:25:45;3.40;99.90
15072;DHT22;7635;56.696;13.002;2023-03-29T09:28:18;3.50;99.90
15072;DHT22;7635;56.696;13.002;2023-03-29T09:30:50;3.50;99.90
15072;DHT22;7635;56.696;13.002;2023-03-29T09:33:24;3.50;99.90
15072;DHT22;7635;56.696;13.002;2023-03-29T09:35:53;3.50;99.90
15072;DHT22;7635;56.696;13.002;2023-03-29T09:38:24;3.50;99.90
15072;DHT22;7635;56.696;13.002;2023-03-29T09:40:52;3.50;99.90
15072;DHT22;7635;56.696;13.002;2023-03-29T09:43:28;3.50;99.90
15072;DHT22;7635;56.696;13.002;2023-03-29T09:45:59;3.50;99.90
15072;DHT22;7635;56.696;13.002;2023-03-29T09:48:33;3.50;99.90
15072;DHT22;7635;56.696;13.002;2023-03-29T09:51:03;3.60;99.90
15072;DHT22;7635;56.696;13.002;2023-03-29T09:53:30;3.60;99.90
15072;DHT22;7635;56.696;13.002;2023-03-29T09:55:58;3.60;99.90
15072;DHT22;7635;56.696;13.002;2023-03-29T09:58:27;3.60;99.90
15072;DHT22;7635;56.696;13.002;2023-03-29T10:00:56;3.60;99.90
15072;DHT22;7635;56.696;13.002;2023-03-29T10:03:25;3.70;99.90
15072;DHT22;7635;56.696;13.002;2023-03-29T10:05:56;3.70;99.90
15072;DHT22;7635;56.696;13.002;2023-03-29T10:08:26;3.70;99.90
15072;DHT22;7635;56.696;13.002;2023-03-29T10:10:53;3.70;99.90
15072;DHT22;7635;56.696;13.002;2023-03-29T10:13:26;3.70;99.90
15072;DHT22;7635;56.696;13.002;2023-03-29T10:16:01;3.80;99.90
15072;DHT22;7635;56.696;13.002;2023-03-29T10:18:29;3.80;99.90
15072;DHT22;7635;56.696;13.002;2023-03-29T10:21:00;3.90;99.90
15072;DHT22;7635;56.696;13.002;2023-03-29T10:23:30;3.90;99.90
15072;DHT22;7635;56.696;13.002;2023-03-29T10:25:57;3.90;99.90
15072;DHT22;7635;56.696;13.002;2023-03-29T10:28:26;3.90;99.90
15072;DHT22;7635;56.696;13.002;2023-03-29T10:30:57;4.00;99.90
15072;DHT22;7635;56.696;13.002;2023-03-29T10:33:29;4.00;99.90
15072;DHT22;7635;56.696;13.002;2023-03-29T10:35:58;4.00;99.90
15072;DHT22;7635;56.696;13.002;2023-03-29T10:38:27;4.10;99.90
15072;DHT22;7635;56.696;13.002;2023-03-29T10:41:01;4.10;99.90
15072;DHT22;7635;56.696;13.002;2023-03-29T10:43:35;4.10;99.90
15072;DHT22;7635;56.696;13.002;2023-03-29T10:46:06;4.20;99.90
15072;DHT22;7635;56.696;13.002;2023-03-29T10:48:35;4.20;99.90
15072;DHT22;7635;56.696;13.002;2023-03-29T10:51:04;4.20;99.90
15072;DHT22;7635;56.696;13.002;2023-03-29T10:53:33;4.30;99.90
15072;DHT22;7635;56.696;13.002;2023-03-29T10:56:10;4.30;99.90
15072;DHT22;7635;56.696;13.002;2023-03-29T10:58:50;4.30;99.90
15072;DHT22;7635;56.696;13.002;2023-03-29T11:01:25;4.30;99.90
15072;DHT22;7635;56.696;13.002;2023-03-29T11:04:06;4.30;99.90
15072;DHT22;7635;56.696;13.002;2023-03-29T11:06:40;4.40;99.90
15072;DHT22;7635;56.696;13.002;2023-03-29T11:09:18;4.40;99.90
15072;DHT22;7635;56.696;13.002;2023-03-29T11:11:53;4.40;99.90
15072;DHT22;7635;56.696;13.002;2023-03-29T11:14:29;4.50;99.90
15072;DHT22;7635;56.696;13.002;2023-03-29T11:17:11;4.50;99.90
15072;DHT22;7635;56.696;13.002;2023-03-29T11:19:54;4.50;99.90
15072;DHT22;7635;56.696;13.002;2023-03-29T11:22:31;4.50;99.90
15072;DHT22;7635;56.696;13.002;2023-03-29T11:25:12;4.60;99.90
15072;DHT22;7635;56.696;13.002;2023-03-29T11:27:46;4.60;99.90
15072;DHT22;7635;56.696;13.002;2023-03-29T11:30:19;4.60;99.90
15072;DHT22;7635;56.696;13.002;2023-03-29T11:32:54;4.60;99.90
15072;DHT22;7635;56.696;13.002;2023-03-29T11:35:31;4.60;99.90
15072;DHT22;7635;56.696;13.002;2023-03-29T11:38:04;4.60;99.90
15072;DHT22;7635;56.696;13.002;2023-03-29T11:40:41;4.60;99.90
15072;DHT22;7635;56.696;13.002;2023-03-29T11:43:13;4.70;99.90
15072;DHT22;7635;56.696;13.002;2023-03-29T11:45:47;4.70;99.90
15072;DHT22;7635;56.696;13.002;2023-03-29T11:48:20;4.70;99.90
15072;DHT22;7635;56.696;13.002;2023-03-29T11:50:52;4.70;99.90
15072;DHT22;7635;56.696;13.002;2023-03-29T11:53:25;4.70;99.90
15072;DHT22;7635;56.696;13.002;2023-03-29T11:55:55;4.80;99.90
15072;DHT22;7635;56.696;13.002;2023-03-29T11:58:28;4.80;99.90
15072;DHT22;7635;56.696;13.002;2023-03-29T12:01:00;4.80;99.90
15072;DHT22;7635;56.696;13.002;2023-03-29T12:03:35;4.80;99.90
15072;DHT22;7635;56.696;13.002;2023-03-29T12:06:09;4.80;99.90
15072;DHT22;7635;56.696;13.002;2023-03-29T12:08:43;4.80;99.90
15072;DHT22;7635;56.696;13.002;2023-03-29T12:11:18;4.90;99.90
15072;DHT22;7635;56.696;13.002;2023-03-29T12:13:48;4.90;99.90
15072;DHT22;7635;56.696;13.002;2023-03-29T12:16:20;4.90;99.90
15072;DHT22;7635;56.696;13.002;2023-03-29T12:18:54;4.90;99.90
15072;DHT22;7635;56.696;13.002;2023-03-29T12:21:23;4.90;99.90
15072;DHT22;7635;56.696;13.002;2023-03-29T12:23:52;4.90;99.90
15072;DHT22;7635;56.696;13.002;2023-03-29T12:26:32;4.90;99.90
15072;DHT22;7635;56.696;13.002;2023-03-29T12:29:13;4.90;99.90
15072;DHT22;7635;56.696;13.002;2023-03-29T12:31:48;4.90;99.90
15072;DHT22;7635;56.696;13.002;2023-03-29T12:34:32;4.90;99.90
15072;DHT22;7635;56.696;13.002;2023-03-29T12:37:19;5.00;99.90
15072;DHT22;7635;56.696;13.002;2023-03-29T12:39:51;4.90;99.90
15072;DHT22;7635;56.696;13.002;2023-03-29T12:42:21;4.90;99.90
15072;DHT22;7635;56.696;13.002;2023-03-29T12:44:49;5.00;99.90
15072;DHT22;7635;56.696;13.002;2023-03-29T12:47:20;4.90;99.90
15072;DHT22;7635;56.696;13.002;2023-03-29T12:49:51;5.00;99.90
15072;DHT22;7635;56.696;13.002;2023-03-29T12:52:24;5.00;99.90
15072;DHT22;7635;56.696;13.002;2023-03-29T12:54:55;5.00;99.90
15072;DHT22;7635;56.696;13.002;2023-03-29T12:57:26;5.00;99.90
15072;DHT22;7635;56.696;13.002;2023-03-29T12:59:53;5.00;99.90
15072;DHT22;7635;56.696;13.002;2023-03-29T13:02:25;5.00;99.90
15072;DHT22;7635;56.696;13.002;2023-03-29T13:04:59;5.00;99.90
15072;DHT22;7635;56.696;13.002;2023-03-29T13:07:42;5.00;99.90
15072;DHT22;7635;56.696;13.002;2023-03-29T13:10:32;5.00;99.90
15072;DHT22;7635;56.696;13.002;2023-03-29T13:13:10;5.00;99.90
15072;DHT22;7635;56.696;13.002;2023-03-29T13:15:38;5.00;99.90
15072;DHT22;7635;56.696;13.002;2023-03-29T13:18:16;5.00;99.90
15072;DHT22;7635;56.696;13.002;2023-03-29T13:20:55;5.00;99.90
15072;DHT22;7635;56.696;13.002;2023-03-29T13:23:32;5.10;99.90
15072;DHT22;7635;56.696;13.002;2023-03-29T13:26:17;5.10;99.90
15072;DHT22;7635;56.696;13.002;2023-03-29T13:29:00;5.10;99.90
15072;DHT22;7635;56.696;13.002;2023-03-29T13:31:32;5.10;99.90
15072;DHT22;7635;56.696;13.002;2023-03-29T13:34:05;5.10;99.90
15072;DHT22;7635;56.696;13.002;2023-03-29T13:36:45;5.20;99.90
15072;DHT22;7635;56.696;13.002;2023-03-29T13:39:18;5.20;99.90
15072;DHT22;7635;56.696;13.002;2023-03-29T13:41:49;5.20;99.90
15072;DHT22;7635;56.696;13.002;2023-03-29T13:44:24;5.20;99.90
15072;DHT22;7635;56.696;13.002;2023-03-29T13:47:02;5.20;99.90
15072;DHT22;7635;56.696;13.002;2023-03-29T13:49:31;5.20;99.90
15072;DHT22;7635;56.696;13.002;2023-03-29T13:52:09;5.20;99.90
15072;DHT22;7635;56.696;13.002;2023-03-29T13:54:43;5.20;99.90
15072;DHT22;7635;56.696;13.002;2023-03-29T13:57:15;5.20;99.90
15072;DHT22;7635;56.696;13.002;2023-03-29T13:59:48;5.20;99.90
15072;DHT22;7635;56.696;13.002;2023-03-29T14:02:26;5.20;99.90
15072;DHT22;7635;56.696;13.002;2023-03-29T14:04:57;5.20;99.90
15072;DHT22;7635;56.696;13.002;2023-03-29T14:07:27;5.20;99.90
15072;DHT22;7635;56.696;13.002;2023-03-29T14:09:55;5.30;99.90
15072;DHT22;7635;56.696;13.002;2023-03-29T14:12:31;5.20;99.90
15072;DHT22;7635;56.696;13.002;2023-03-29T14:15:01;5.20;99.90
15072;DHT22;7635;56.696;13.002;2023-03-29T14:17:29;5.20;99.90
15072;DHT22;7635;56.696;13.002;2023-03-29T14:19:59;5.20;99.90
15072;DHT22;7635;56.696;13.002;2023-03-29T14:22:31;5.20;99.90
15072;DHT22;7635;56.696;13.002;2023-03-29T14:25:04;5.20;99.90
15072;DHT22;7635;56.696;13.002;2023-03-29T14:27:35;5.30;99.90
15072;DHT22;7635;56.696;13.002;2023-03-29T14:30:16;5.30;99.90
15072;DHT22;7635;56.696;13.002;2023-03-29T14:32:44;5.30;99.90
15072;DHT22;7635;56.696;13.002;2023-03-29T14:35:11;5.30;99.90
15072;DHT22;7635;56.696;13.002;2023-03-29T14:37:38;5.30;99.90
15072;DHT22;7635;56.696;13.002;2023-03-29T14:40:14;5.30;99.90
15072;DHT22;7635;56.696;13.002;2023-03-29T14:42:45;5.30;99.90
15072;DHT22;7635;56.696;13.002;2023-03-29T14:45:14;5.30;99.90
15072;DHT22;7635;56.696;13.002;2023-03-29T14:47:42;5.30;99.90
15072;DHT22;7635;56.696;13.002;2023-03-29T14:50:16;5.30;99.90
15072;DHT22;7635;56.696;13.002;2023-03-29T14:52:44;5.30;99.90
15072;DHT22;7635;56.696;13.002;2023-03-29T14:55:13;5.30;99.90
15072;DHT22;7635;56.696;13.002;2023-03-29T14:57:41;5.30;99.90
15072;DHT22;7635;56.696;13.002;2023-03-29T15:00:20;5.30;99.90
15072;DHT22;7635;56.696;13.002;2023-03-29T15:02:53;5.30;99.90
15072;DHT22;7635;56.696;13.002;2023-03-29T15:05:24;5.30;99.90
15072;DHT22;7635;56.696;13.002;2023-03-29T15:07:53;5.30;99.90
15072;DHT22;7635;56.696;13.002;2023-03-29T15:10:21;5.30;99.90
15072;DHT22;7635;56.696;13.002;2023-03-29T15:12:48;5.30;99.90
15072;DHT22;7635;56.696;13.002;2023-03-29T15:15:17;5.30;99.90
15072;DHT22;7635;56.696;13.002;2023-03-29T15:17:44;5.30;99.90
15072;DHT22;7635;56.696;13.002;2023-03-29T15:20:14;5.30;99.90
15072;DHT22;7635;56.696;13.002;2023-03-29T15:22:52;5.30;99.90
15072;DHT22;7635;56.696;13.002;2023-03-29T15:25:20;5.30;99.90
15072;DHT22;7635;56.696;13.002;2023-03-29T15:27:50;5.30;99.90
15072;DHT22;7635;56.696;13.002;2023-03-29T15:30:31;5.30;99.90
15072;DHT22;7635;56.696;13.002;2023-03-29T15:33:08;5.30;99.90
15072;DHT22;7635;56.696;13.002;2023-03-29T15:35:34;5.30;99.90
15072;DHT22;7635;56.696;13.002;2023-03-29T15:38:02;5.30;99.90
15072;DHT22;7635;56.696;13.002;2023-03-29T15:40:30;5.30;99.90
15072;DHT22;7635;56.696;13.002;2023-03-29T15:42:57;5.30;99.90
15072;DHT22;7635;56.696;13.002;2023-03-29T15:45:25;5.30;99.90
15072;DHT22;7635;56.696;13.002;2023-03-29T15:47:52;5.30;99.90
15072;DHT22;7635;56.696;13.002;2023-03-29T15:50:19;5.30;99.90
15072;DHT22;7635;56.696;13.002;2023-03-29T15:52:46;5.30;99.90
15072;DHT22;7635;56.696;13.002;2023-03-29T15:55:13;5.30;99.90
15072;DHT22;7635;56.696;13.002;2023-03-29T15:57:47;5.30;99.90
15072;DHT22;7635;56.696;13.002;2023-03-29T16:00:15;5.30;99.90
15072;DHT22;7635;56.696;13.002;2023-03-29T16:02:44;5.30;99.90
15072;DHT22;7635;56.696;13.002;2023-03-29T16:05:11;5.30;99.90
15072;DHT22;7635;56.696;13.002;2023-03-29T16:07:38;5.30;99.90